createdAt,value
2022-09-03T00:00:05.420Z,15.20
2022-09-03T00:02:37.062Z,17.60
2022-09-03T00:05:10.671Z,15.50
2022-09-03T00:07:37.888Z,11.20
2022-09-03T00:10:10.434Z,13.80
2022-09-03T00:12:40.607Z,13.00
2022-09-03T00:15:18.692Z,10.70
2022-09-03T00:18:20.505Z,10.20
2022-09-03T00:21:00.608Z,12.50
2022-09-03T00:23:30.621Z,16.80
2022-09-03T00:26:13.238Z,15.10
2022-09-03T00:28:45.913Z,12.50
2022-09-03T00:31:30.601Z,15.30
2022-09-03T00:34:03.971Z,11.90
2022-09-03T00:36:45.047Z,16.20
2022-09-03T00:39:16.785Z,14.20
2022-09-03T00:42:09.041Z,15.80
2022-09-03T00:44:49.968Z,13.40
2022-09-03T00:47:51.493Z,13.50
2022-09-03T00:50:46.984Z,12.10
2022-09-03T00:53:34.305Z,8.10
2022-09-03T00:56:16.624Z,6.70
2022-09-03T00:59:19.907Z,4.40
2022-09-03T01:01:59.587Z,6.70
2022-09-03T01:04:35.111Z,3.70
2022-09-03T01:07:24.623Z,5.30
2022-09-03T01:10:26.369Z,3.70
2022-09-03T01:13:05.461Z,7.60
2022-09-03T01:15:51.633Z,7.60
2022-09-03T01:18:36.007Z,12.80
2022-09-03T01:21:09.507Z,6.90
2022-09-03T01:23:54.923Z,4.70
2022-09-03T01:26:35.965Z,6.50
2022-09-03T01:29:32.611Z,4.40
2022-09-03T01:32:24.025Z,5.30
2022-09-03T01:35:08.192Z,3.50
2022-09-03T01:37:52.113Z,3.80
2022-09-03T01:40:51.215Z,2.70
2022-09-03T01:43:57.788Z,3.20
2022-09-03T01:46:27.462Z,2.50
2022-09-03T01:49:11.955Z,3.90
2022-09-03T01:51:39.212Z,3.30
2022-09-03T01:54:26.537Z,3.50
2022-09-03T01:57:34.604Z,3.80
2022-09-03T02:00:13.649Z,4.00
2022-09-03T02:02:42.582Z,4.10
2022-09-03T02:05:15.235Z,3.80
2022-09-03T02:07:47.725Z,4.90
2022-09-03T02:10:20.079Z,3.60
2022-09-03T02:12:56.547Z,3.20
2022-09-03T02:15:23.974Z,7.80
2022-09-03T02:17:53.097Z,4.80
2022-09-03T02:20:21.708Z,3.00
2022-09-03T02:22:49.293Z,3.60
2022-09-03T02:25:19.785Z,3.60
2022-09-03T02:27:48.783Z,5.90
2022-09-03T02:30:16.116Z,3.40
2022-09-03T02:32:43.484Z,3.60
2022-09-03T02:35:10.724Z,3.20
2022-09-03T02:37:37.878Z,4.20
2022-09-03T02:40:09.189Z,4.40
2022-09-03T02:42:36.882Z,3.70
2022-09-03T02:45:17.858Z,3.90
2022-09-03T02:47:45.112Z,4.40
2022-09-03T02:50:12.362Z,2.30
2022-09-03T02:52:39.509Z,2.70
2022-09-03T02:55:08.092Z,4.00
2022-09-03T02:57:35.140Z,3.80
2022-09-03T03:00:02.628Z,4.10
2022-09-03T03:02:29.867Z,5.80
2022-09-03T03:04:57.219Z,5.70
2022-09-03T03:07:26.807Z,6.10
2022-09-03T03:09:54.269Z,5.20
2022-09-03T03:12:22.271Z,5.40
2022-09-03T03:14:49.896Z,8.90
2022-09-03T03:17:17.282Z,4.20
2022-09-03T03:19:46.959Z,5.70
2022-09-03T03:22:14.121Z,4.80
2022-09-03T03:24:41.254Z,5.90
2022-09-03T03:27:11.080Z,5.60
2022-09-03T03:29:38.422Z,4.40
2022-09-03T03:32:05.777Z,5.00
2022-09-03T03:34:32.926Z,4.90
2022-09-03T03:37:00.589Z,5.40
2022-09-03T03:39:27.805Z,5.70
2022-09-03T03:41:55.093Z,6.10
2022-09-03T03:44:22.264Z,6.70
2022-09-03T03:46:49.596Z,7.70
2022-09-03T03:49:16.873Z,4.30
2022-09-03T03:51:44.107Z,6.10
2022-09-03T03:54:11.274Z,6.10
2022-09-03T03:56:41.676Z,8.00
2022-09-03T03:59:08.847Z,4.80
2022-09-03T04:01:38.579Z,5.90
2022-09-03T04:04:06.098Z,5.90
2022-09-03T04:06:33.242Z,7.10
2022-09-03T04:09:00.495Z,4.40
2022-09-03T04:11:30.206Z,5.30
2022-09-03T04:13:57.353Z,4.50
2022-09-03T04:16:28.021Z,5.30
2022-09-03T04:18:55.965Z,5.20
2022-09-03T04:21:24.645Z,4.30
2022-09-03T04:23:54.076Z,4.90
2022-09-03T04:26:23.142Z,6.80
2022-09-03T04:28:50.819Z,7.20
2022-09-03T04:31:19.732Z,4.40
2022-09-03T04:33:47.046Z,4.90
2022-09-03T04:36:19.432Z,8.80
2022-09-03T04:38:51.114Z,4.20
2022-09-03T04:41:20.449Z,6.20
2022-09-03T04:43:51.513Z,6.10
2022-09-03T04:46:27.056Z,7.20
2022-09-03T04:48:55.249Z,6.70
2022-09-03T04:51:27.615Z,5.50
2022-09-03T04:53:57.455Z,5.10
2022-09-03T04:56:32.347Z,7.00
2022-09-03T04:59:01.747Z,6.20
2022-09-03T05:01:30.248Z,6.20
2022-09-03T05:03:58.308Z,7.90
2022-09-03T05:06:26.619Z,5.90
2022-09-03T05:08:54.752Z,5.90
2022-09-03T05:11:21.912Z,5.40
2022-09-03T05:13:50.383Z,5.80
2022-09-03T05:16:17.730Z,6.50
2022-09-03T05:18:45.402Z,4.80
2022-09-03T05:21:18.005Z,6.60
2022-09-03T05:23:46.974Z,4.80
2022-09-03T05:26:24.978Z,4.90
2022-09-03T05:28:56.526Z,5.10
2022-09-03T05:31:26.624Z,6.40
2022-09-03T05:33:55.485Z,7.00
2022-09-03T05:36:23.911Z,7.80
2022-09-03T05:38:51.294Z,5.30
2022-09-03T05:41:19.259Z,5.30
2022-09-03T05:43:51.401Z,5.00
2022-09-03T05:46:18.991Z,6.10
2022-09-03T05:48:46.109Z,5.60
2022-09-03T05:51:17.468Z,5.70
2022-09-03T05:53:48.706Z,8.00
2022-09-03T05:56:21.790Z,7.10
2022-09-03T06:01:25.614Z,7.00
2022-09-03T06:04:10.917Z,9.10
2022-09-03T06:06:39.885Z,5.70
2022-09-03T06:09:13.890Z,7.10
2022-09-03T06:11:43.173Z,5.40
2022-09-03T06:14:12.027Z,6.30
2022-09-03T06:16:49.821Z,8.30
2022-09-03T06:19:18.295Z,5.80
2022-09-03T06:21:46.273Z,7.40
2022-09-03T06:24:18.087Z,8.30
2022-09-03T06:26:45.853Z,6.60
2022-09-03T06:29:13.549Z,7.80
2022-09-03T06:31:40.875Z,6.80
2022-09-03T06:34:08.752Z,4.70
2022-09-03T06:36:35.989Z,6.30
2022-09-03T06:39:03.144Z,5.80
2022-09-03T06:41:31.945Z,7.20
2022-09-03T06:44:11.917Z,5.80
2022-09-03T06:46:42.636Z,8.60
2022-09-03T06:49:10.889Z,4.40
2022-09-03T06:51:39.274Z,5.70
2022-09-03T06:54:11.347Z,7.30
2022-09-03T06:56:40.758Z,6.40
2022-09-03T06:59:14.284Z,5.80
2022-09-03T07:01:44.277Z,4.40
2022-09-03T07:04:13.258Z,4.60
2022-09-03T07:06:44.607Z,9.30
2022-09-03T07:09:15.942Z,4.90
2022-09-03T07:11:47.998Z,6.10
2022-09-03T07:14:19.531Z,5.90
2022-09-03T07:16:48.080Z,5.80
2022-09-03T07:19:15.619Z,4.40
2022-09-03T07:21:48.173Z,5.10
2022-09-03T07:24:24.860Z,7.00
2022-09-03T07:26:55.266Z,4.90
2022-09-03T07:29:22.996Z,4.70
2022-09-03T07:31:53.701Z,3.50
2022-09-03T07:34:26.577Z,7.30
2022-09-03T07:36:56.395Z,4.20
2022-09-03T07:39:23.816Z,3.20
2022-09-03T07:41:51.410Z,3.50
2022-09-03T07:44:23.235Z,4.40
2022-09-03T07:46:53.487Z,3.50
2022-09-03T07:49:26.132Z,2.70
2022-09-03T07:51:54.768Z,4.70
2022-09-03T07:54:26.500Z,6.10
2022-09-03T07:56:53.768Z,5.90
2022-09-03T07:59:24.155Z,3.20
2022-09-03T08:01:53.867Z,5.20
2022-09-03T08:04:24.638Z,4.90
2022-09-03T08:06:56.013Z,8.40
2022-09-03T08:09:23.955Z,5.80
2022-09-03T08:11:51.574Z,4.30
2022-09-03T08:14:22.334Z,4.00
2022-09-03T08:16:49.421Z,4.20
2022-09-03T08:19:19.748Z,2.30
2022-09-03T08:21:49.132Z,2.90
2022-09-03T08:24:21.456Z,3.10
2022-09-03T08:26:52.183Z,6.90
2022-09-03T08:29:20.710Z,2.80
2022-09-03T08:31:51.321Z,2.10
2022-09-03T08:34:21.740Z,3.20
2022-09-03T08:36:54.639Z,5.50
2022-09-03T08:39:21.913Z,2.80
2022-09-03T08:42:13.283Z,2.90
2022-09-03T08:44:47.806Z,3.70
2022-09-03T08:47:17.526Z,3.10
2022-09-03T08:49:57.975Z,3.00
2022-09-03T08:52:34.338Z,4.60
2022-09-03T08:55:27.399Z,2.00
2022-09-03T08:58:21.511Z,3.30
2022-09-03T09:01:22.722Z,3.00
2022-09-03T09:04:21.008Z,6.40
2022-09-03T09:06:58.494Z,2.50
2022-09-03T09:09:44.808Z,2.10
2022-09-03T09:12:26.797Z,3.80
2022-09-03T09:17:47.308Z,2.40
2022-09-03T09:20:41.892Z,3.00
2022-09-03T09:23:13.833Z,3.60
2022-09-03T09:25:51.448Z,4.80
2022-09-03T09:28:23.500Z,6.20
2022-09-03T09:30:52.498Z,3.70
2022-09-03T09:33:22.214Z,3.00
2022-09-03T09:35:49.744Z,4.10
2022-09-03T09:38:28.417Z,3.60
2022-09-03T09:40:57.795Z,2.80
2022-09-03T09:43:24.946Z,5.40
2022-09-03T09:45:53.532Z,2.60
2022-09-03T09:48:32.043Z,3.10
2022-09-03T09:51:06.974Z,3.70
2022-09-03T09:53:35.467Z,2.30
2022-09-03T09:56:05.877Z,3.70
2022-09-03T09:58:34.472Z,2.00
2022-09-03T10:01:03.764Z,4.60
2022-09-03T10:03:35.836Z,3.60
2022-09-03T10:06:26.773Z,2.60
2022-09-03T10:09:06.531Z,2.80
2022-09-03T10:11:38.444Z,14.60
2022-09-03T10:14:09.482Z,33.20
2022-09-03T10:16:39.427Z,51.50
2022-09-03T10:19:17.953Z,16.10
2022-09-03T10:23:09.956Z,6.30
2022-09-03T10:25:39.764Z,3.40
2022-09-03T10:28:09.152Z,4.40
2022-09-03T10:31:08.557Z,5.10
2022-09-03T10:33:42.070Z,4.30
2022-09-03T10:36:20.413Z,4.20
2022-09-03T10:38:51.651Z,5.80
2022-09-03T10:41:25.228Z,5.60
2022-09-03T10:44:21.561Z,4.50
2022-09-03T10:46:56.638Z,4.30
2022-09-03T10:49:30.297Z,6.50
2022-09-03T10:52:16.291Z,4.40
2022-09-03T10:55:29.028Z,3.40
2022-09-03T10:58:11.926Z,3.20
2022-09-03T11:00:40.626Z,4.90
2022-09-03T11:03:07.812Z,4.00
2022-09-03T11:05:43.015Z,6.50
2022-09-03T11:08:34.802Z,5.10
2022-09-03T11:11:38.816Z,5.20
2022-09-03T11:14:10.865Z,6.70
2022-09-03T11:16:50.833Z,5.60
2022-09-03T11:19:34.861Z,4.70
2022-09-03T11:22:02.951Z,2.90
2022-09-03T11:24:30.839Z,4.60
2022-09-03T11:34:14.193Z,4.60
2022-09-03T11:36:51.256Z,5.80
2022-09-03T11:39:44.046Z,3.20
2022-09-03T11:42:13.009Z,3.00
2022-09-03T11:44:51.652Z,3.10
2022-09-03T11:47:47.446Z,4.50
2022-09-03T11:50:22.264Z,3.60
2022-09-03T11:52:53.838Z,3.60
2022-09-03T11:55:43.454Z,3.00
2022-09-03T11:58:33.278Z,3.40
2022-09-03T12:01:02.283Z,2.90
2022-09-03T12:03:44.062Z,3.10
2022-09-03T12:06:24.033Z,2.20
2022-09-03T12:09:14.778Z,2.20
2022-09-03T12:11:49.148Z,3.40
2022-09-03T12:14:37.926Z,4.80
2022-09-03T12:17:22.550Z,3.30
2022-09-03T12:19:51.031Z,4.50
2022-09-03T12:22:19.138Z,4.30
2022-09-03T12:24:46.456Z,2.70
2022-09-03T12:27:26.961Z,3.90
2022-09-03T12:30:02.613Z,3.40
2022-09-03T12:32:37.479Z,2.50
2022-09-03T12:38:12.019Z,4.80
2022-09-03T12:43:49.699Z,2.90
2022-09-03T12:46:17.995Z,3.40
2022-09-03T12:51:58.142Z,9.10
2022-09-03T12:54:26.999Z,4.00
2022-09-03T12:56:57.020Z,2.90
2022-09-03T12:59:24.267Z,3.00
2022-09-03T13:01:53.766Z,4.60
2022-09-03T13:04:27.083Z,4.80
2022-09-03T13:06:56.967Z,6.80
2022-09-03T13:09:24.843Z,5.20
2022-09-03T13:11:52.789Z,4.20
2022-09-03T13:14:20.472Z,6.10
2022-09-03T13:16:51.403Z,6.40
2022-09-03T13:19:36.421Z,8.30
2022-09-03T13:22:13.490Z,4.50
2022-09-03T13:25:03.372Z,5.20
2022-09-03T13:27:42.578Z,5.80
2022-09-03T13:30:13.663Z,5.40
2022-09-03T13:33:01.239Z,9.50
2022-09-03T13:35:29.316Z,5.90
2022-09-03T13:38:37.045Z,5.40
2022-09-03T13:41:36.857Z,6.00
2022-09-03T13:44:32.555Z,7.20
2022-09-03T13:47:02.229Z,5.10
2022-09-03T13:50:07.267Z,5.80
2022-09-03T13:53:02.299Z,5.30
2022-09-03T13:55:59.017Z,5.20
2022-09-03T13:58:30.417Z,5.40
2022-09-03T14:00:59.044Z,4.10
2022-09-03T14:03:35.958Z,3.40
2022-09-03T14:06:40.116Z,3.50
2022-09-03T14:09:41.741Z,4.80
2022-09-03T14:12:42.885Z,4.80
2022-09-03T14:15:21.297Z,4.60
2022-09-03T14:18:35.856Z,4.60
2022-09-03T14:21:17.139Z,6.40
2022-09-03T14:23:53.399Z,5.60
2022-09-03T14:26:49.052Z,4.70
2022-09-03T14:29:17.189Z,3.90
2022-09-03T14:32:05.930Z,3.90
2022-09-03T14:34:52.569Z,4.80
2022-09-03T14:37:48.680Z,4.30
2022-09-03T14:40:23.202Z,5.20
2022-09-03T14:42:56.497Z,5.20
2022-09-03T14:45:39.413Z,4.70
2022-09-03T14:48:06.766Z,5.80
2022-09-03T14:50:43.744Z,4.20
2022-09-03T14:53:47.143Z,5.90
2022-09-03T14:56:26.693Z,5.40
2022-09-03T14:59:25.170Z,4.40
2022-09-03T15:02:27.945Z,8.00
2022-09-03T15:05:17.250Z,5.20
2022-09-03T15:07:59.735Z,6.60
2022-09-03T15:10:39.576Z,4.30
2022-09-03T15:13:21.169Z,8.40
2022-09-03T15:15:48.724Z,3.60
2022-09-03T15:18:32.976Z,5.10
2022-09-03T15:21:07.396Z,4.60
2022-09-03T15:23:56.670Z,5.60
2022-09-03T15:26:42.887Z,4.20
2022-09-03T15:29:22.603Z,4.60
2022-09-03T15:31:59.305Z,5.50
2022-09-03T15:34:38.925Z,10.40
2022-09-03T15:37:12.053Z,5.40
2022-09-03T15:39:40.905Z,4.20
2022-09-03T15:42:20.542Z,6.80
2022-09-03T15:44:49.715Z,6.30
2022-09-03T15:47:50.522Z,7.30
2022-09-03T15:50:36.593Z,8.20
2022-09-03T15:53:46.342Z,9.30
2022-09-03T15:56:28.459Z,10.30
2022-09-03T15:59:18.198Z,7.40
2022-09-03T16:01:59.912Z,8.70
2022-09-03T16:05:06.268Z,6.10
2022-09-03T16:07:45.179Z,4.80
2022-09-03T16:10:25.536Z,5.70
2022-09-03T16:13:13.787Z,7.60
2022-09-03T16:16:03.841Z,9.70
2022-09-03T16:18:40.568Z,12.90
2022-09-03T16:21:26.683Z,8.00
2022-09-03T16:23:58.934Z,8.10
2022-09-03T16:26:37.568Z,6.60
2022-09-03T16:29:12.967Z,7.60
2022-09-03T16:31:57.874Z,7.90
2022-09-03T16:35:02.487Z,7.40
2022-09-03T16:38:00.646Z,10.00
2022-09-03T16:40:41.479Z,10.90
2022-09-03T16:43:29.983Z,7.60
2022-09-03T16:46:31.225Z,9.20
2022-09-03T16:49:37.983Z,5.10
2022-09-03T16:52:39.203Z,7.20
2022-09-03T16:55:26.453Z,5.00
2022-09-03T16:58:25.904Z,4.80
2022-09-03T17:01:14.572Z,4.30
2022-09-03T17:03:51.699Z,6.10
2022-09-03T17:06:46.909Z,4.70
2022-09-03T17:09:39.965Z,3.70
2022-09-03T17:12:19.206Z,5.90
2022-09-03T17:15:18.907Z,4.50
2022-09-03T17:18:04.864Z,5.10
2022-09-03T17:21:03.279Z,7.40
2022-09-03T17:23:38.417Z,6.60
2022-09-03T17:26:13.015Z,8.30
2022-09-03T17:29:01.651Z,5.10
2022-09-03T17:32:03.502Z,6.20
2022-09-03T17:35:03.217Z,5.30
2022-09-03T17:37:33.186Z,4.00
2022-09-03T17:40:00.419Z,4.50
2022-09-03T17:43:11.628Z,5.00
2022-09-03T17:45:59.864Z,4.50
2022-09-03T17:48:38.994Z,4.10
2022-09-03T17:51:13.311Z,4.80
2022-09-03T17:53:52.713Z,4.90
2022-09-03T17:56:34.890Z,5.40
2022-09-03T17:59:21.453Z,5.70
2022-09-03T18:01:55.951Z,4.10
2022-09-03T18:04:35.209Z,9.60
2022-09-03T18:07:23.833Z,5.60
2022-09-03T18:10:16.822Z,9.00
2022-09-03T18:13:03.658Z,5.20
2022-09-03T18:15:41.029Z,6.30
2022-09-03T18:18:20.772Z,6.80
2022-09-03T18:21:30.681Z,8.70
2022-09-03T18:24:41.390Z,7.10
2022-09-03T18:28:01.483Z,8.20
2022-09-03T18:30:47.368Z,5.30
2022-09-03T18:33:33.796Z,8.00
2022-09-03T18:36:19.867Z,7.00
2022-09-03T18:39:08.720Z,5.20
2022-09-03T18:42:12.980Z,4.40
2022-09-03T18:45:18.644Z,4.70
2022-09-03T18:48:32.048Z,5.60
2022-09-03T18:51:20.987Z,4.70
2022-09-03T18:54:17.658Z,5.10
2022-09-03T18:57:10.688Z,7.20
2022-09-03T19:00:28.825Z,6.40
2022-09-03T19:03:15.802Z,5.30
2022-09-03T19:06:27.767Z,4.00
2022-09-03T19:09:37.082Z,5.70
2022-09-03T19:12:44.167Z,5.50
2022-09-03T19:15:42.944Z,4.70
2022-09-03T19:18:47.487Z,5.60
2022-09-03T19:21:47.002Z,4.20
2022-09-03T19:24:32.977Z,5.30
2022-09-03T19:27:51.797Z,4.50
2022-09-03T19:30:35.904Z,4.40
2022-09-03T19:33:46.970Z,9.00
2022-09-03T19:36:39.024Z,5.40
2022-09-03T19:39:33.777Z,9.40
2022-09-03T19:42:52.149Z,7.60
2022-09-03T19:45:53.451Z,7.10
2022-09-03T19:49:05.811Z,8.20
2022-09-03T19:51:54.609Z,4.60
2022-09-03T19:54:41.987Z,5.30
2022-09-03T19:57:27.674Z,7.30
2022-09-03T20:00:13.765Z,6.50
2022-09-03T20:03:05.216Z,7.20
2022-09-03T20:05:51.073Z,5.80
2022-09-03T20:08:36.867Z,4.20
2022-09-03T20:11:04.458Z,4.70
2022-09-03T20:13:51.533Z,7.70
2022-09-03T20:16:40.517Z,5.20
2022-09-03T20:19:16.868Z,5.50
2022-09-03T20:22:11.145Z,4.00
2022-09-03T20:24:56.439Z,4.20
2022-09-03T20:27:42.444Z,5.80
2022-09-03T20:30:19.732Z,3.70
2022-09-03T20:33:22.622Z,5.00
2022-09-03T20:36:12.384Z,6.60
2022-09-03T20:38:48.937Z,2.90
2022-09-03T20:41:18.236Z,3.50
2022-09-03T20:44:04.230Z,3.50
2022-09-03T20:46:47.043Z,3.30
2022-09-03T20:49:38.296Z,4.60
2022-09-03T20:52:07.779Z,5.10
2022-09-03T20:54:47.717Z,4.90
2022-09-03T20:58:00.151Z,5.40
2022-09-03T21:00:27.274Z,5.50
2022-09-03T21:03:14.589Z,5.50
2022-09-03T21:06:07.244Z,5.00
2022-09-03T21:08:43.813Z,4.70
2022-09-03T21:11:34.104Z,6.10
2022-09-03T21:14:07.611Z,3.90
2022-09-03T21:17:03.531Z,5.20
2022-09-03T21:20:06.211Z,3.70
2022-09-03T21:22:58.347Z,4.50
2022-09-03T21:25:28.310Z,5.20
2022-09-03T21:28:22.471Z,5.40
2022-09-03T21:30:54.371Z,4.80
2022-09-03T21:33:24.875Z,5.30
2022-09-03T21:35:55.209Z,7.90
2022-09-03T21:38:27.131Z,5.80
2022-09-03T21:41:00.869Z,5.70
2022-09-03T21:43:35.557Z,8.40
2022-09-03T21:46:21.723Z,8.90
2022-09-03T21:49:12.265Z,8.00
2022-09-03T21:51:52.606Z,9.00
2022-09-03T21:54:36.253Z,9.70
2022-09-03T21:57:03.388Z,9.30
2022-09-03T21:59:58.618Z,8.00
2022-09-03T22:02:26.527Z,8.70
2022-09-03T22:04:54.647Z,10.20
2022-09-03T22:07:46.171Z,11.60
2022-09-03T22:10:36.157Z,9.50
2022-09-03T22:13:09.745Z,8.30
2022-09-03T22:15:38.326Z,10.40
2022-09-03T22:18:29.380Z,6.60
2022-09-03T22:21:19.471Z,10.20
2022-09-03T22:23:51.545Z,4.80
2022-09-03T22:26:49.510Z,3.70
2022-09-03T22:29:23.387Z,4.00
2022-09-03T22:31:58.618Z,5.40
2022-09-03T22:34:41.118Z,3.20
2022-09-03T22:40:34.505Z,4.10
2022-09-03T22:43:31.272Z,4.40
2022-09-03T22:46:02.123Z,6.20
2022-09-03T22:48:54.523Z,6.00
2022-09-03T22:51:22.009Z,3.60
2022-09-03T22:54:22.217Z,6.20
2022-09-03T22:56:49.507Z,7.20
2022-09-03T22:59:24.383Z,5.30
2022-09-03T23:02:18.546Z,7.00
2022-09-03T23:05:12.056Z,6.90
2022-09-03T23:07:54.850Z,7.60
2022-09-03T23:10:29.517Z,11.30
2022-09-03T23:13:11.287Z,9.60
2022-09-03T23:15:38.928Z,6.60
2022-09-03T23:18:20.944Z,3.80
2022-09-03T23:21:16.237Z,5.70
2022-09-03T23:23:48.478Z,9.40
2022-09-03T23:26:37.570Z,4.80
2022-09-03T23:29:26.536Z,7.40
2022-09-03T23:31:57.316Z,4.30
2022-09-03T23:34:25.131Z,9.10
2022-09-03T23:37:33.368Z,3.90
2022-09-03T23:40:13.405Z,5.30
2022-09-03T23:43:11.369Z,5.00
2022-09-03T23:45:53.830Z,6.00
2022-09-03T23:48:53.691Z,5.70
2022-09-03T23:51:23.159Z,5.20
2022-09-03T23:54:13.797Z,8.10
2022-09-03T23:57:03.385Z,6.10
2022-09-03T23:59:52.536Z,5.40
